createdAt,value
2022-11-13T05:00:37.430Z,5.96
2022-11-13T05:01:37.290Z,5.89
2022-11-13T05:02:37.265Z,5.85
2022-11-13T05:03:37.266Z,5.90
2022-11-13T05:04:37.243Z,5.93
2022-11-13T05:05:37.239Z,5.93
2022-11-13T05:06:37.318Z,5.89
2022-11-13T05:07:37.209Z,5.83
2022-11-13T05:08:37.214Z,5.94
2022-11-13T05:09:37.190Z,5.81
2022-11-13T05:10:37.175Z,5.89
2022-11-13T05:11:42.197Z,5.85
2022-11-13T05:12:37.153Z,5.93
2022-11-13T05:13:37.162Z,5.96
2022-11-13T05:14:37.130Z,6.00
2022-11-13T05:15:37.154Z,5.96
2022-11-13T05:16:37.226Z,5.93
2022-11-13T05:17:37.111Z,5.90
2022-11-13T05:18:37.116Z,5.91
2022-11-13T05:19:37.083Z,5.94
2022-11-13T05:20:37.065Z,5.93
2022-11-13T05:21:37.055Z,5.89
2022-11-13T05:22:42.072Z,5.94
2022-11-13T05:23:37.064Z,6.00
2022-11-13T05:24:37.028Z,5.97
2022-11-13T05:25:37.012Z,5.94
2022-11-13T05:26:36.999Z,5.96
2022-11-13T05:27:36.990Z,5.91
2022-11-13T05:28:36.987Z,6.01
2022-11-13T05:29:36.975Z,6.01
2022-11-13T05:30:36.959Z,6.01
2022-11-13T05:31:36.944Z,6.01
2022-11-13T05:32:37.047Z,5.91
2022-11-13T05:33:41.961Z,5.91
2022-11-13T05:34:36.929Z,6.04
2022-11-13T05:35:36.902Z,6.03
2022-11-13T05:36:36.893Z,6.01
2022-11-13T05:37:36.887Z,5.99
2022-11-13T05:38:36.878Z,5.93
2022-11-13T05:39:36.862Z,5.94
2022-11-13T05:40:36.851Z,5.86
2022-11-13T05:41:36.839Z,5.76
2022-11-13T05:42:36.833Z,5.81
2022-11-13T05:43:37.558Z,5.75
2022-11-13T05:44:41.823Z,5.72
2022-11-13T05:45:36.797Z,5.78
2022-11-13T05:46:36.779Z,5.78
2022-11-13T05:47:36.768Z,5.74
2022-11-13T05:48:36.881Z,5.74
2022-11-13T05:49:36.747Z,5.76
2022-11-13T05:50:36.737Z,5.81
2022-11-13T05:51:36.734Z,5.75
2022-11-13T05:52:36.717Z,5.82
2022-11-13T05:53:36.727Z,5.82
2022-11-13T05:54:36.689Z,5.82
2022-11-13T05:55:41.735Z,5.78
2022-11-13T05:56:36.675Z,5.83
2022-11-13T05:57:36.670Z,5.81
2022-11-13T05:58:36.659Z,5.81
2022-11-13T05:59:36.638Z,5.86
2022-11-13T06:00:36.622Z,5.74
2022-11-13T06:01:36.705Z,5.78
2022-11-13T06:02:36.601Z,5.64
2022-11-13T06:03:36.627Z,5.67
2022-11-13T06:04:36.704Z,5.74
2022-11-13T06:05:36.586Z,5.67
2022-11-13T06:06:41.669Z,5.74
2022-11-13T06:07:36.546Z,5.79
2022-11-13T06:08:36.547Z,5.76
2022-11-13T06:09:36.526Z,5.79
2022-11-13T06:10:36.516Z,5.79
2022-11-13T06:11:36.503Z,5.81
2022-11-13T06:12:36.498Z,5.83
2022-11-13T06:13:36.512Z,5.83
2022-11-13T06:14:36.477Z,5.90
2022-11-13T06:15:36.467Z,5.86
2022-11-13T06:16:36.448Z,5.86
2022-11-13T06:17:41.461Z,5.89
2022-11-13T06:18:36.440Z,5.90
2022-11-13T06:19:36.418Z,5.93
2022-11-13T06:20:36.527Z,5.86
2022-11-13T06:21:36.396Z,5.85
2022-11-13T06:22:36.385Z,5.83
2022-11-13T06:23:36.384Z,5.76
2022-11-13T06:24:36.361Z,5.75
2022-11-13T06:25:36.350Z,5.79
2022-11-13T06:26:36.350Z,5.71
2022-11-13T06:27:36.357Z,5.68
2022-11-13T06:28:41.350Z,5.68
2022-11-13T06:29:36.305Z,5.64
2022-11-13T06:30:36.324Z,5.56
2022-11-13T06:31:36.282Z,5.63
2022-11-13T06:32:36.278Z,5.60
2022-11-13T06:33:36.274Z,5.56
2022-11-13T06:34:36.250Z,5.57
2022-11-13T06:35:36.265Z,5.57
2022-11-13T06:36:36.348Z,5.57
2022-11-13T06:37:36.244Z,5.58
2022-11-13T06:38:36.303Z,5.56
2022-11-13T06:39:41.275Z,5.67
2022-11-13T06:40:36.184Z,5.63
2022-11-13T06:41:36.188Z,5.60
2022-11-13T06:42:36.164Z,5.57
2022-11-13T06:43:36.171Z,5.67
2022-11-13T06:44:36.174Z,5.65
2022-11-13T06:45:36.129Z,5.54
2022-11-13T06:46:36.153Z,5.65
2022-11-13T06:47:36.107Z,5.63
2022-11-13T06:48:36.114Z,5.74
2022-11-13T06:49:36.167Z,5.65
2022-11-13T06:50:45.699Z,5.65
2022-11-13T06:51:37.067Z,5.75
2022-11-13T06:52:36.162Z,5.74
2022-11-13T06:53:36.142Z,5.78
2022-11-13T06:54:36.043Z,5.75
2022-11-13T06:55:36.017Z,5.71
2022-11-13T06:56:36.055Z,5.68
2022-11-13T06:57:36.005Z,5.68
2022-11-13T06:58:35.985Z,5.78
2022-11-13T06:59:35.986Z,5.76
2022-11-13T07:00:38.203Z,5.83
2022-11-13T07:01:41.013Z,5.83
2022-11-13T07:02:35.942Z,5.86
2022-11-13T07:03:35.949Z,5.91
2022-11-13T07:04:35.954Z,5.89
2022-11-13T07:05:35.915Z,5.90
2022-11-13T07:06:40.156Z,5.96
2022-11-13T07:07:35.894Z,5.82
2022-11-13T07:08:35.988Z,5.83
2022-11-13T07:09:35.877Z,5.91
2022-11-13T07:10:35.857Z,5.93
2022-11-13T07:11:35.845Z,5.86
2022-11-13T07:12:40.861Z,5.86
2022-11-13T07:13:35.830Z,5.90
2022-11-13T07:14:35.831Z,5.86
2022-11-13T07:15:35.802Z,5.82
2022-11-13T07:17:04.211Z,5.93
2022-11-13T07:17:36.804Z,5.85
2022-11-13T07:18:35.783Z,5.86
2022-11-13T07:19:35.775Z,5.90
2022-11-13T07:20:35.754Z,5.91
2022-11-13T07:21:35.734Z,5.76
2022-11-13T07:22:35.738Z,5.83
2022-11-13T07:23:40.858Z,5.76
2022-11-13T07:24:35.729Z,5.83
2022-11-13T07:25:35.701Z,5.74
2022-11-13T07:26:35.677Z,5.75
2022-11-13T07:27:35.668Z,5.75
2022-11-13T07:28:35.658Z,5.78
2022-11-13T07:29:35.659Z,5.75
2022-11-13T07:30:35.640Z,5.74
2022-11-13T07:31:35.624Z,5.72
2022-11-13T07:32:35.616Z,5.85
2022-11-13T07:33:35.605Z,5.78
2022-11-13T07:34:40.631Z,5.79
2022-11-13T07:35:35.594Z,5.76
2022-11-13T07:36:35.570Z,5.74
2022-11-13T07:37:35.575Z,5.78
2022-11-13T07:38:35.580Z,5.78
2022-11-13T07:39:35.663Z,5.81
2022-11-13T07:40:35.531Z,5.76
2022-11-13T07:41:35.515Z,5.72
2022-11-13T07:42:35.506Z,5.83
2022-11-13T07:43:35.491Z,5.76
2022-11-13T07:44:55.081Z,5.82
2022-11-13T07:45:41.499Z,5.78
2022-11-13T07:46:35.471Z,5.78
2022-11-13T07:47:35.451Z,5.78
2022-11-13T07:48:35.437Z,5.79
2022-11-13T07:49:35.440Z,5.85
2022-11-13T07:50:35.417Z,5.85
2022-11-13T07:51:35.449Z,5.86
2022-11-13T07:52:35.397Z,5.90
2022-11-13T07:53:35.384Z,5.83
2022-11-13T07:54:35.386Z,5.85
2022-11-13T07:55:35.512Z,5.83
2022-11-13T07:56:40.369Z,5.82
2022-11-13T07:57:35.361Z,5.96
2022-11-13T07:58:35.404Z,5.93
2022-11-13T07:59:35.327Z,5.90
2022-11-13T08:00:35.514Z,5.86
2022-11-13T08:01:35.361Z,5.86
2022-11-13T08:02:35.288Z,5.93
2022-11-13T08:03:35.281Z,5.79
2022-11-13T08:04:35.295Z,5.75
2022-11-13T08:05:35.267Z,5.85
2022-11-13T08:06:35.250Z,5.82
2022-11-13T08:07:40.260Z,5.93
2022-11-13T08:08:35.223Z,5.96
2022-11-13T08:09:35.218Z,5.83
2022-11-13T08:10:35.222Z,5.85
2022-11-13T08:11:35.296Z,5.78
2022-11-13T08:12:35.315Z,5.83
2022-11-13T08:13:35.192Z,5.78
2022-11-13T08:14:35.218Z,5.68
2022-11-13T08:15:35.146Z,5.71
2022-11-13T08:16:35.132Z,5.72
2022-11-13T08:17:35.148Z,5.72
2022-11-13T08:18:40.152Z,5.75
2022-11-13T08:19:35.125Z,5.78
2022-11-13T08:20:35.104Z,5.78
2022-11-13T08:21:35.128Z,5.79
2022-11-13T08:22:35.105Z,5.79
2022-11-13T08:23:35.181Z,5.78
2022-11-13T08:24:35.055Z,5.79
2022-11-13T08:25:35.063Z,5.90
2022-11-13T08:26:35.051Z,5.93
2022-11-13T08:27:35.119Z,5.96
2022-11-13T08:28:35.039Z,5.97
2022-11-13T08:29:40.030Z,5.90
2022-11-13T08:30:35.027Z,5.93
2022-11-13T08:31:34.962Z,5.97
2022-11-13T08:32:34.965Z,6.04
2022-11-13T08:33:34.947Z,6.00
2022-11-13T08:34:34.969Z,6.03
2022-11-13T08:35:34.922Z,6.08
2022-11-13T08:36:34.929Z,6.09
2022-11-13T08:37:34.903Z,6.25
2022-11-13T08:38:34.920Z,6.14
2022-11-13T08:39:34.891Z,6.25
2022-11-13T08:40:39.961Z,6.19
2022-11-13T08:41:34.868Z,6.25
2022-11-13T08:42:34.841Z,6.22
2022-11-13T08:43:34.967Z,6.27
2022-11-13T08:44:34.846Z,6.17
2022-11-13T08:45:34.833Z,6.37
2022-11-13T08:46:34.848Z,6.28
2022-11-13T08:47:34.791Z,6.33
2022-11-13T08:48:34.788Z,6.25
2022-11-13T08:49:34.780Z,6.27
2022-11-13T08:50:36.132Z,6.31
2022-11-13T08:51:39.758Z,6.31
2022-11-13T08:52:34.738Z,6.38
2022-11-13T08:53:34.742Z,6.48
2022-11-13T08:54:34.719Z,6.38
2022-11-13T08:55:34.718Z,6.37
2022-11-13T08:56:34.687Z,6.34
2022-11-13T08:57:34.672Z,6.38
2022-11-13T08:58:34.664Z,6.33
2022-11-13T08:59:34.786Z,6.28
2022-11-13T09:00:34.780Z,6.21
2022-11-13T09:01:34.652Z,6.25
2022-11-13T09:02:39.636Z,6.36
2022-11-13T09:03:34.713Z,6.31
2022-11-13T09:04:34.599Z,6.40
2022-11-13T09:05:34.608Z,6.46
2022-11-13T09:06:34.614Z,6.51
2022-11-13T09:07:34.616Z,6.52
2022-11-13T09:08:34.546Z,6.44
2022-11-13T09:09:34.544Z,6.46
2022-11-13T09:10:34.541Z,6.37
2022-11-13T09:11:34.517Z,6.41
2022-11-13T09:12:34.515Z,6.37
2022-11-13T09:13:43.986Z,6.43
2022-11-13T09:14:35.480Z,6.49
2022-11-13T09:15:34.593Z,6.41
2022-11-13T09:16:34.484Z,6.48
2022-11-13T09:17:34.450Z,6.40
2022-11-13T09:18:34.443Z,6.41
2022-11-13T09:19:34.423Z,6.43
2022-11-13T09:20:34.443Z,6.44
2022-11-13T09:21:34.401Z,6.40
2022-11-13T09:22:34.391Z,6.41
2022-11-13T09:23:34.389Z,6.37
2022-11-13T09:24:39.394Z,6.38
2022-11-13T09:25:37.532Z,6.44
2022-11-13T09:26:34.363Z,6.46
2022-11-13T09:27:34.343Z,6.43
2022-11-13T09:28:34.359Z,6.55
2022-11-13T09:29:34.322Z,6.41
2022-11-13T09:30:34.315Z,6.52
2022-11-13T09:31:34.422Z,6.54
2022-11-13T09:32:34.280Z,6.46
2022-11-13T09:33:34.283Z,6.52
2022-11-13T09:34:34.272Z,6.59
2022-11-13T09:35:39.380Z,6.70
2022-11-13T09:36:34.247Z,6.69
2022-11-13T09:37:34.233Z,6.74
2022-11-13T09:38:34.216Z,6.71
2022-11-13T09:39:34.208Z,6.73
2022-11-13T09:40:34.219Z,6.66
2022-11-13T09:41:34.218Z,6.69
2022-11-13T09:42:34.174Z,6.54
2022-11-13T09:43:34.163Z,6.46
2022-11-13T09:44:34.171Z,6.54
2022-11-13T09:45:34.151Z,6.46
2022-11-13T09:46:39.269Z,6.43
2022-11-13T09:47:34.153Z,6.52
2022-11-13T09:48:34.100Z,6.54
2022-11-13T09:49:34.088Z,6.44
2022-11-13T09:50:34.089Z,6.51
2022-11-13T09:51:34.085Z,6.51
2022-11-13T09:52:34.101Z,6.56
2022-11-13T09:53:34.049Z,6.55
2022-11-13T09:54:34.043Z,6.55
2022-11-13T09:55:34.036Z,6.54
2022-11-13T09:56:34.035Z,6.54
2022-11-13T09:57:39.028Z,6.59
2022-11-13T09:58:33.989Z,6.59
2022-11-13T09:59:33.984Z,6.52
2022-11-13T10:00:33.981Z,6.52
2022-11-13T10:01:33.990Z,6.55
2022-11-13T10:02:34.062Z,6.58
2022-11-13T10:03:59.353Z,6.58
2022-11-13T10:04:34.945Z,6.55
2022-11-13T10:05:33.934Z,6.56
2022-11-13T10:06:33.903Z,6.61
2022-11-13T10:07:33.888Z,6.74
2022-11-13T10:08:38.916Z,6.73
2022-11-13T10:09:33.872Z,6.88
2022-11-13T10:10:33.859Z,6.89
2022-11-13T10:11:33.869Z,6.95
2022-11-13T10:12:33.838Z,6.99
2022-11-13T10:13:33.826Z,6.97
2022-11-13T10:14:33.824Z,6.98
2022-11-13T10:15:33.803Z,6.98
2022-11-13T10:16:33.804Z,7.07
2022-11-13T10:17:33.779Z,7.09
2022-11-13T10:18:33.881Z,6.97
2022-11-13T10:19:38.799Z,7.07
2022-11-13T10:20:33.775Z,7.03
2022-11-13T10:21:33.798Z,7.25
2022-11-13T10:22:34.588Z,7.32
2022-11-13T10:23:33.726Z,7.31
2022-11-13T10:24:33.728Z,7.30
2022-11-13T10:25:33.740Z,7.37
2022-11-13T10:26:33.702Z,7.37
2022-11-13T10:27:33.748Z,7.58
2022-11-13T10:28:51.101Z,7.49
2022-11-13T10:29:34.663Z,7.45
2022-11-13T10:30:38.655Z,7.55
2022-11-13T10:31:33.633Z,7.49
2022-11-13T10:32:33.617Z,7.58
2022-11-13T10:33:33.598Z,7.50
2022-11-13T10:34:33.712Z,7.52
2022-11-13T10:35:33.574Z,7.52
2022-11-13T10:36:33.575Z,7.57
2022-11-13T10:37:33.558Z,7.63
2022-11-13T10:38:33.542Z,7.60
2022-11-13T10:39:33.530Z,7.61
2022-11-13T10:40:33.520Z,7.72
2022-11-13T10:41:38.545Z,7.68
2022-11-13T10:42:33.502Z,7.71
2022-11-13T10:43:33.486Z,7.64
2022-11-13T10:44:33.508Z,7.77
2022-11-13T10:45:33.471Z,7.72
2022-11-13T10:46:33.474Z,7.80
2022-11-13T10:48:01.867Z,7.89
2022-11-13T10:48:34.430Z,7.85
2022-11-13T10:49:33.418Z,7.92
2022-11-13T10:50:33.525Z,7.80
2022-11-13T10:51:33.397Z,7.67
2022-11-13T10:52:38.431Z,7.68
2022-11-13T10:53:33.381Z,7.69
2022-11-13T10:54:33.367Z,7.72
2022-11-13T10:55:33.350Z,7.80
2022-11-13T10:56:33.356Z,7.87
2022-11-13T10:57:33.344Z,7.83
2022-11-13T10:58:33.538Z,8.04
2022-11-13T10:59:33.348Z,8.00
2022-11-13T11:00:33.299Z,7.97
2022-11-13T11:01:33.332Z,7.97
2022-11-13T11:02:33.341Z,8.00
2022-11-13T11:03:39.760Z,8.00
2022-11-13T11:04:33.262Z,7.87
2022-11-13T11:05:33.239Z,8.02
2022-11-13T11:07:04.624Z,7.98
2022-11-13T11:07:34.399Z,8.02
2022-11-13T11:08:33.208Z,8.04
2022-11-13T11:09:33.198Z,8.01
2022-11-13T11:10:33.225Z,8.00
2022-11-13T11:11:33.179Z,8.05
2022-11-13T11:12:33.180Z,8.12
2022-11-13T11:13:33.172Z,8.10
2022-11-13T11:14:38.185Z,8.05
2022-11-13T11:15:33.153Z,8.11
2022-11-13T11:16:33.129Z,8.15
2022-11-13T11:17:33.119Z,8.37
2022-11-13T11:18:33.097Z,8.50
2022-11-13T11:19:33.084Z,8.45
2022-11-13T11:20:33.073Z,8.74
2022-11-13T11:21:33.075Z,8.77
2022-11-13T11:22:33.190Z,8.80
2022-11-13T11:23:33.041Z,8.83
2022-11-13T11:24:33.030Z,8.89
2022-11-13T11:25:38.045Z,8.71
2022-11-13T11:26:33.014Z,8.77
2022-11-13T11:27:33.014Z,8.70
2022-11-13T11:28:32.984Z,8.65
2022-11-13T11:29:32.975Z,8.66
2022-11-13T11:30:32.963Z,8.53
2022-11-13T11:31:32.958Z,8.43
2022-11-13T11:32:32.953Z,8.40
2022-11-13T11:33:32.934Z,8.40
2022-11-13T11:34:32.924Z,8.45
2022-11-13T11:35:32.911Z,8.50
2022-11-13T11:36:37.935Z,8.53
2022-11-13T11:37:32.898Z,8.48
2022-11-13T11:38:33.000Z,8.53
2022-11-13T11:39:32.864Z,8.50
2022-11-13T11:40:32.855Z,8.55
2022-11-13T11:41:32.841Z,8.58
2022-11-13T11:42:32.848Z,8.68
2022-11-13T11:43:32.859Z,8.74
2022-11-13T11:44:32.812Z,8.68
2022-11-13T11:45:32.796Z,8.68
2022-11-13T11:46:32.789Z,8.80
2022-11-13T11:47:37.812Z,8.80
2022-11-13T11:48:32.896Z,8.83
2022-11-13T11:49:32.754Z,8.81
2022-11-13T11:50:32.741Z,8.89
2022-11-13T11:51:32.793Z,8.83
2022-11-13T11:52:32.735Z,8.71
2022-11-13T11:53:32.744Z,8.77
2022-11-13T11:54:32.815Z,8.70
2022-11-13T11:55:32.716Z,8.71
2022-11-13T11:56:32.675Z,8.77
2022-11-13T11:57:32.673Z,8.74
2022-11-13T11:58:37.678Z,8.77
2022-11-13T11:59:32.679Z,8.77
2022-11-13T12:00:32.639Z,8.79
2022-11-13T12:01:32.618Z,8.80
2022-11-13T12:02:32.621Z,8.83
2022-11-13T12:03:32.598Z,8.81
2022-11-13T12:04:32.590Z,8.79
2022-11-13T12:05:32.622Z,8.80
2022-11-13T12:06:32.591Z,8.89
2022-11-13T12:07:32.574Z,8.84
2022-11-13T12:08:32.584Z,8.96
2022-11-13T12:09:37.673Z,9.01
2022-11-13T12:10:32.521Z,9.01
2022-11-13T12:11:32.521Z,9.14
2022-11-13T12:12:32.522Z,9.10
2022-11-13T12:13:32.485Z,9.17
2022-11-13T12:14:32.476Z,9.15
2022-11-13T12:15:32.473Z,9.20
2022-11-13T12:16:32.457Z,9.20
2022-11-13T12:17:32.448Z,9.29
2022-11-13T12:18:32.477Z,9.28
2022-11-13T12:19:32.500Z,9.31
2022-11-13T12:20:37.640Z,9.39
2022-11-13T12:21:32.430Z,9.40
2022-11-13T12:22:32.421Z,9.39
2022-11-13T12:23:32.391Z,9.42
2022-11-13T12:24:32.369Z,9.39
2022-11-13T12:25:32.471Z,9.46
2022-11-13T12:26:32.354Z,9.36
2022-11-13T12:27:32.352Z,9.46
2022-11-13T12:28:34.921Z,9.54
2022-11-13T12:29:32.331Z,9.50
2022-11-13T12:30:32.343Z,9.50
2022-11-13T12:31:37.366Z,9.47
2022-11-13T12:32:32.327Z,9.51
2022-11-13T12:33:32.330Z,9.51
2022-11-13T12:34:32.292Z,9.50
2022-11-13T12:35:32.299Z,9.56
2022-11-13T12:36:32.235Z,9.53
2022-11-13T12:37:32.227Z,9.56
2022-11-13T12:38:32.547Z,9.64
2022-11-13T12:39:32.209Z,9.69
2022-11-13T12:40:32.199Z,9.72
2022-11-13T12:41:32.301Z,9.68
2022-11-13T12:42:37.198Z,9.72
2022-11-13T12:43:32.211Z,9.69
2022-11-13T12:44:32.145Z,9.86
2022-11-13T12:45:32.132Z,9.84
2022-11-13T12:46:32.134Z,10.07
2022-11-13T12:47:32.115Z,10.12
2022-11-13T12:48:32.773Z,10.17
2022-11-13T12:49:32.177Z,10.23
2022-11-13T12:50:33.026Z,10.32
2022-11-13T12:51:32.074Z,10.67
2022-11-13T12:52:32.057Z,11.00
2022-11-13T12:53:37.114Z,11.33
2022-11-13T12:54:32.036Z,11.80
2022-11-13T12:55:32.023Z,12.49
2022-11-13T12:56:32.059Z,13.36
2022-11-13T12:57:32.128Z,13.92
2022-11-13T12:58:32.300Z,13.89
2022-11-13T12:59:32.134Z,13.51
2022-11-13T13:00:31.965Z,13.07
2022-11-13T13:01:32.063Z,12.70
2022-11-13T13:02:31.944Z,12.31
2022-11-13T13:03:31.953Z,11.98
2022-11-13T13:04:37.092Z,11.98
2022-11-13T13:05:31.912Z,11.65
2022-11-13T13:06:31.897Z,11.54
2022-11-13T13:07:31.886Z,11.39
2022-11-13T13:08:32.222Z,11.29
2022-11-13T13:09:31.870Z,11.25
2022-11-13T13:10:31.856Z,11.22
2022-11-13T13:11:31.842Z,11.18
2022-11-13T13:12:31.845Z,11.10
2022-11-13T13:13:31.958Z,11.14
2022-11-13T13:14:31.832Z,11.14
2022-11-13T13:15:36.827Z,11.07
2022-11-13T13:16:31.795Z,11.09
2022-11-13T13:17:31.777Z,11.03
2022-11-13T13:18:32.100Z,11.03
2022-11-13T13:19:31.756Z,11.07
2022-11-13T13:20:31.741Z,10.96
2022-11-13T13:21:31.734Z,10.96
2022-11-13T13:22:31.738Z,10.96
2022-11-13T13:23:31.734Z,11.06
2022-11-13T13:24:31.697Z,11.09
2022-11-13T13:25:31.687Z,11.07
2022-11-13T13:26:36.901Z,11.09
2022-11-13T13:27:31.669Z,11.14
2022-11-13T13:28:32.061Z,11.10
2022-11-13T13:29:31.757Z,11.11
2022-11-13T13:30:31.630Z,11.06
2022-11-13T13:31:31.625Z,11.11
2022-11-13T13:32:31.604Z,11.07
2022-11-13T13:33:31.607Z,11.18
2022-11-13T13:34:35.089Z,11.15
2022-11-13T13:35:31.597Z,11.09
2022-11-13T13:36:31.578Z,11.10
2022-11-13T13:37:36.601Z,11.21
2022-11-13T13:38:31.950Z,11.15
2022-11-13T13:39:31.614Z,11.19
2022-11-13T13:40:31.512Z,11.28
2022-11-13T13:41:31.509Z,11.24
2022-11-13T13:42:31.515Z,11.25
2022-11-13T13:43:31.532Z,11.32
2022-11-13T13:44:31.473Z,11.32
2022-11-13T13:45:31.573Z,11.35
2022-11-13T13:46:31.451Z,11.36
2022-11-13T13:47:31.444Z,11.36
2022-11-13T13:48:36.481Z,11.42
2022-11-13T13:49:31.432Z,11.40
2022-11-13T13:50:31.417Z,11.39
2022-11-13T13:51:31.394Z,11.43
2022-11-13T13:52:31.396Z,11.51
2022-11-13T13:53:31.370Z,11.51
2022-11-13T13:54:31.413Z,11.55
2022-11-13T13:55:31.361Z,11.57
2022-11-13T13:56:31.351Z,11.51
2022-11-13T13:57:31.331Z,11.64
2022-11-13T13:58:31.699Z,11.67
2022-11-13T13:59:36.347Z,11.55
2022-11-13T14:00:31.291Z,11.57
2022-11-13T14:01:31.566Z,11.61
2022-11-13T14:02:31.306Z,11.67
2022-11-13T14:03:31.274Z,11.69
2022-11-13T14:04:31.333Z,11.70
2022-11-13T14:05:31.309Z,11.69
2022-11-13T14:06:31.239Z,11.65
2022-11-13T14:07:31.247Z,11.72
2022-11-13T14:08:31.554Z,11.70
2022-11-13T14:09:31.229Z,11.76
2022-11-13T14:10:36.209Z,11.75
2022-11-13T14:11:31.169Z,11.78
2022-11-13T14:12:31.178Z,11.82
2022-11-13T14:13:31.184Z,11.76
2022-11-13T14:14:31.160Z,11.85
2022-11-13T14:15:31.125Z,11.90
2022-11-13T14:16:31.134Z,11.90
2022-11-13T14:17:31.246Z,11.79
2022-11-13T14:18:31.108Z,11.83
2022-11-13T14:19:31.098Z,11.85
2022-11-13T14:20:31.080Z,11.95
2022-11-13T14:21:36.110Z,11.95
2022-11-13T14:22:31.066Z,11.94
2022-11-13T14:23:31.081Z,11.95
2022-11-13T14:24:31.104Z,11.86
2022-11-13T14:25:31.053Z,11.94
2022-11-13T14:26:31.005Z,11.91
2022-11-13T14:27:30.998Z,11.94
2022-11-13T14:28:31.483Z,11.94
2022-11-13T14:29:30.970Z,12.04
2022-11-13T14:30:30.966Z,11.98
2022-11-13T14:31:30.979Z,11.98
2022-11-13T14:32:36.066Z,11.98
2022-11-13T14:33:31.440Z,11.98
2022-11-13T14:34:30.917Z,12.02
2022-11-13T14:35:30.953Z,12.04
2022-11-13T14:36:30.889Z,12.04
2022-11-13T14:37:30.895Z,11.98
2022-11-13T14:38:30.898Z,12.02
2022-11-13T14:39:30.867Z,12.04
2022-11-13T14:40:30.914Z,12.02
2022-11-13T14:41:30.852Z,12.04
2022-11-13T14:42:30.836Z,12.05
2022-11-13T14:43:35.836Z,12.05
2022-11-13T14:44:32.243Z,11.99
2022-11-13T14:45:30.807Z,11.96
2022-11-13T14:46:30.785Z,11.98
2022-11-13T14:47:30.767Z,11.99
2022-11-13T14:48:30.876Z,12.10
2022-11-13T14:49:30.744Z,11.98
2022-11-13T14:50:30.750Z,11.98
2022-11-13T14:51:30.726Z,11.96
2022-11-13T14:52:30.711Z,11.98
2022-11-13T14:53:31.249Z,12.05
2022-11-13T14:55:12.950Z,12.07
2022-11-13T14:55:31.689Z,12.05
2022-11-13T14:56:30.668Z,12.02
2022-11-13T14:57:30.658Z,12.04
2022-11-13T14:58:30.645Z,11.96
2022-11-13T14:59:30.639Z,12.02
2022-11-13T15:00:30.644Z,11.99
2022-11-13T15:01:30.614Z,12.10
2022-11-13T15:02:30.655Z,12.07
2022-11-13T15:03:31.061Z,11.98
2022-11-13T15:04:30.691Z,12.01
2022-11-13T15:05:35.661Z,12.04
2022-11-13T15:06:30.555Z,12.10
2022-11-13T15:07:30.638Z,12.02
2022-11-13T15:08:30.543Z,12.05
2022-11-13T15:09:30.523Z,12.09
2022-11-13T15:10:30.538Z,12.02
2022-11-13T15:11:30.538Z,11.98
2022-11-13T15:12:30.485Z,11.99
2022-11-13T15:13:30.844Z,12.05
2022-11-13T15:14:30.464Z,12.04
2022-11-13T15:15:30.539Z,11.96
2022-11-13T15:16:35.467Z,12.02
2022-11-13T15:17:30.449Z,12.01
2022-11-13T15:18:30.424Z,12.04
2022-11-13T15:19:30.411Z,11.99
2022-11-13T15:20:30.522Z,12.05
2022-11-13T15:21:30.406Z,12.02
2022-11-13T15:22:30.384Z,12.07
2022-11-13T15:23:30.738Z,12.02
2022-11-13T15:24:30.404Z,12.04
2022-11-13T15:25:30.355Z,11.94
2022-11-13T15:26:30.343Z,11.91
2022-11-13T15:27:40.224Z,11.90
2022-11-13T15:28:31.313Z,11.94
2022-11-13T15:29:30.297Z,11.86
2022-11-13T15:30:30.304Z,11.86
2022-11-13T15:31:30.276Z,11.83
2022-11-13T15:32:30.263Z,11.85
2022-11-13T15:33:30.673Z,11.80
2022-11-13T15:34:30.239Z,11.67
2022-11-13T15:35:30.262Z,11.67
2022-11-13T15:36:30.339Z,11.70
2022-11-13T15:37:30.212Z,11.67
2022-11-13T15:38:35.330Z,11.60
2022-11-13T15:39:30.194Z,11.55
2022-11-13T15:40:30.185Z,11.54
2022-11-13T15:41:30.179Z,11.42
2022-11-13T15:42:30.149Z,11.44
2022-11-13T15:43:30.686Z,11.32
2022-11-13T15:44:30.128Z,11.32
2022-11-13T15:45:30.116Z,11.27
2022-11-13T15:46:30.118Z,11.17
2022-11-13T15:47:30.099Z,11.19
2022-11-13T15:48:30.083Z,11.14
2022-11-13T15:49:35.132Z,11.17
2022-11-13T15:50:30.066Z,11.06
2022-11-13T15:51:30.070Z,11.04
2022-11-13T15:52:30.155Z,11.02
2022-11-13T15:53:30.518Z,10.89
2022-11-13T15:54:30.019Z,10.86
2022-11-13T15:55:30.021Z,10.85
2022-11-13T15:56:30.014Z,10.79
2022-11-13T15:57:29.990Z,10.78
2022-11-13T15:58:33.454Z,10.76
2022-11-13T15:59:29.976Z,10.74
2022-11-13T16:00:34.999Z,10.67
2022-11-13T16:01:30.039Z,10.48
2022-11-13T16:02:29.936Z,10.55
2022-11-13T16:03:30.334Z,10.40
2022-11-13T16:04:44.079Z,10.42
2022-11-13T16:05:30.927Z,10.42
2022-11-13T16:06:29.906Z,10.34
2022-11-13T16:07:29.963Z,10.38
2022-11-13T16:08:29.976Z,10.32
2022-11-13T16:09:29.858Z,10.25
2022-11-13T16:10:29.848Z,10.18
2022-11-13T16:11:34.871Z,10.20
2022-11-13T16:12:29.817Z,10.17
2022-11-13T16:13:30.180Z,10.14
2022-11-13T16:14:29.800Z,10.02
2022-11-13T16:15:29.794Z,9.96
2022-11-13T16:16:29.786Z,9.93
2022-11-13T16:17:29.785Z,9.97
2022-11-13T16:18:29.748Z,9.96
2022-11-13T16:19:29.740Z,9.93
2022-11-13T16:20:29.731Z,9.87
2022-11-13T16:21:29.720Z,9.84
2022-11-13T16:22:34.738Z,9.79
2022-11-13T16:23:30.006Z,9.83
2022-11-13T16:24:29.811Z,9.83
2022-11-13T16:25:29.714Z,9.69
2022-11-13T16:26:29.672Z,9.72
2022-11-13T16:27:29.726Z,9.74
2022-11-13T16:28:31.694Z,9.69
2022-11-13T16:29:30.658Z,9.66
2022-11-13T16:30:29.613Z,9.64
2022-11-13T16:31:29.601Z,9.66
2022-11-13T16:32:29.605Z,9.58
2022-11-13T16:33:34.601Z,9.64
2022-11-13T16:34:29.570Z,9.56
2022-11-13T16:35:29.559Z,9.56
2022-11-13T16:36:29.559Z,9.60
2022-11-13T16:37:29.604Z,9.58
2022-11-13T16:38:29.528Z,9.53
2022-11-13T16:39:29.512Z,9.43
2022-11-13T16:40:29.611Z,9.43
2022-11-13T16:41:29.509Z,9.50
2022-11-13T16:42:31.060Z,9.40
2022-11-13T16:43:29.910Z,9.46
2022-11-13T16:44:34.484Z,9.38
2022-11-13T16:45:29.519Z,9.43
2022-11-13T16:46:29.447Z,9.39
2022-11-13T16:47:29.421Z,9.39
2022-11-13T16:48:29.420Z,9.42
2022-11-13T16:49:29.401Z,9.42
2022-11-13T16:50:29.398Z,9.43
2022-11-13T16:51:29.390Z,9.47
2022-11-13T16:52:29.372Z,9.43
2022-11-13T16:53:29.735Z,9.38
2022-11-13T16:54:29.342Z,9.40
2022-11-13T16:55:34.461Z,9.40
2022-11-13T16:56:29.337Z,9.36
2022-11-13T16:57:29.306Z,9.38
2022-11-13T16:58:29.298Z,9.35
2022-11-13T16:59:29.295Z,9.32
2022-11-13T17:00:29.273Z,9.32
2022-11-13T17:01:29.312Z,9.29
2022-11-13T17:02:29.261Z,9.31
2022-11-13T17:03:29.682Z,9.33
2022-11-13T17:04:29.238Z,9.32
2022-11-13T17:05:29.218Z,9.32
2022-11-13T17:06:34.266Z,9.23
2022-11-13T17:07:29.355Z,9.26
2022-11-13T17:08:29.211Z,9.29
2022-11-13T17:09:29.174Z,9.29
2022-11-13T17:10:32.437Z,9.17
2022-11-13T17:11:29.281Z,9.28
2022-11-13T17:12:29.148Z,9.18
2022-11-13T17:13:29.459Z,9.18
2022-11-13T17:14:29.125Z,9.18
2022-11-13T17:15:29.119Z,9.23
2022-11-13T17:16:29.123Z,9.18
2022-11-13T17:17:34.144Z,9.20
2022-11-13T17:18:29.072Z,9.21
2022-11-13T17:19:29.063Z,9.18
2022-11-13T17:20:29.058Z,9.18
2022-11-13T17:21:29.074Z,9.24
2022-11-13T17:22:29.045Z,9.08
2022-11-13T17:23:29.357Z,9.20
2022-11-13T17:24:29.010Z,9.15
2022-11-13T17:25:28.993Z,9.10
2022-11-13T17:26:28.985Z,9.14
2022-11-13T17:27:29.096Z,9.10
2022-11-13T17:28:33.990Z,9.05
2022-11-13T17:29:28.950Z,9.05
2022-11-13T17:30:28.973Z,9.11
2022-11-13T17:31:28.952Z,9.08
2022-11-13T17:32:28.920Z,9.08
2022-11-13T17:33:29.336Z,8.99
2022-11-13T17:34:28.899Z,9.05
2022-11-13T17:35:28.885Z,8.99
2022-11-13T17:36:28.888Z,9.01
2022-11-13T17:37:28.876Z,9.01
2022-11-13T17:38:28.873Z,8.99
2022-11-13T17:39:33.871Z,8.99
2022-11-13T17:40:28.837Z,8.98
2022-11-13T17:41:28.828Z,9.02
2022-11-13T17:42:28.927Z,8.96
2022-11-13T17:43:29.403Z,8.98
2022-11-13T17:44:28.798Z,8.95
2022-11-13T17:45:28.784Z,8.95
2022-11-13T17:46:28.765Z,8.94
2022-11-13T17:47:28.781Z,8.95
2022-11-13T17:48:28.762Z,8.96
2022-11-13T17:49:28.745Z,8.91
2022-11-13T17:50:33.776Z,8.89
2022-11-13T17:51:28.706Z,8.83
2022-11-13T17:52:28.784Z,8.83
2022-11-13T17:53:29.038Z,8.80
2022-11-13T17:54:28.701Z,8.79
2022-11-13T17:55:28.661Z,8.87
2022-11-13T17:56:28.659Z,8.87
2022-11-13T17:57:28.652Z,8.87
2022-11-13T17:58:28.632Z,8.84
2022-11-13T17:59:28.637Z,8.84
2022-11-13T18:00:28.622Z,8.77
2022-11-13T18:01:33.859Z,8.79
2022-11-13T18:02:28.612Z,8.83
2022-11-13T18:03:28.891Z,8.79
2022-11-13T18:04:28.560Z,8.79
2022-11-13T18:05:28.561Z,8.71
2022-11-13T18:06:28.549Z,8.71
2022-11-13T18:07:28.586Z,8.68
2022-11-13T18:08:28.520Z,8.77
2022-11-13T18:09:28.507Z,8.86
2022-11-13T18:10:28.496Z,8.73
2022-11-13T18:11:28.491Z,8.74